Wetterstation Vordersexau
Wetterdaten: Woche 13.02.23 - 19.02.23 (KW7)
Datum Zeit Temp. A. Feuchte A. Luftdruck Regen Wind Richtung Taupunkt Windchill Windben
13.02.2023 00:00 -0,1 C 97 % 1031,3 hPa 0,0 l/m 2,5 km/h (1 Bft) NO -0,5 C -0,1 C 3,6 km/h (1 Bft)
13.02.2023 01:00 -1,0 C 97 % 1031,5 hPa 0,0 l/m 2,5 km/h (1 Bft) NO -1,4 C -1,0 C 2,5 km/h (1 Bft)
13.02.2023 02:00 -1,2 C 97 % 1031,7 hPa 0,0 l/m 1,1 km/h (1 Bft) N -1,6 C -1,2 C 3,6 km/h (1 Bft)
13.02.2023 03:00 -0,7 C 98 % 1031,6 hPa 0,0 l/m 0,0 km/h (0 Bft) N -1,0 C -0,7 C 2,5 km/h (1 Bft)
13.02.2023 04:00 -0,7 C 98 % 1031,8 hPa 0,0 l/m 0,0 km/h (0 Bft) N -1,0 C -0,7 C 0,0 km/h (0 Bft)
13.02.2023 05:00 -1,6 C 98 % 1032,1 hPa 0,0 l/m 0,0 km/h (0 Bft) N -1,9 C -1,6 C 0,0 km/h (0 Bft)
13.02.2023 06:00 -1,7 C 98 % 1032,2 hPa 0,0 l/m 0,0 km/h (0 Bft) N -2,0 C -1,7 C 0,0 km/h (0 Bft)
13.02.2023 07:00 -2,1 C 98 % 1032,5 hPa 0,0 l/m 0,0 km/h (0 Bft) N -2,4 C -2,1 C 2,5 km/h (1 Bft)
13.02.2023 08:00 -2,1 C 98 % 1032,7 hPa 0,0 l/m 0,0 km/h (0 Bft) N -2,4 C -2,1 C 0,0 km/h (0 Bft)
13.02.2023 09:00 0,0 C 95 % 1032,8 hPa 0,0 l/m 0,0 km/h (0 Bft) N -0,7 C 0,0 C 0,0 km/h (0 Bft)
13.02.2023 10:00 2,9 C 89 % 1032,7 hPa 0,0 l/m 0,0 km/h (0 Bft) W 1,3 C 2,9 C 2,5 km/h (1 Bft)
13.02.2023 11:00 5,8 C 86 % 1032,3 hPa 0,0 l/m 3,6 km/h (1 Bft) W-NW 3,6 C 5,8 C 6,1 km/h (2 Bft)
13.02.2023 12:00 7,6 C 81 % 1031,9 hPa 0,0 l/m 3,6 km/h (1 Bft) NW 4,6 C 7,6 C 6,1 km/h (2 Bft)
13.02.2023 13:00 9,2 C 77 % 1031,4 hPa 0,0 l/m 3,6 km/h (1 Bft) W-NW 5,4 C 9,2 C 6,1 km/h (2 Bft)
13.02.2023 14:00 8,9 C 79 % 1031,1 hPa 0,0 l/m 3,6 km/h (1 Bft) W 5,5 C 8,9 C 6,1 km/h (2 Bft)
13.02.2023 15:00 8,8 C 79 % 1030,8 hPa 0,0 l/m 3,6 km/h (1 Bft) W 5,4 C 8,8 C 6,1 km/h (2 Bft)
13.02.2023 16:00 7,3 C 83 % 1030,7 hPa 0,0 l/m 3,6 km/h (1 Bft) W 4,6 C 7,3 C 7,2 km/h (2 Bft)
13.02.2023 17:00 4,9 C 90 % 1030,8 hPa 0,0 l/m 2,5 km/h (1 Bft) W 3,4 C 4,9 C 6,1 km/h (2 Bft)
13.02.2023 18:00 2,2 C 97 % 1031,3 hPa 0,0 l/m 1,1 km/h (1 Bft) W 1,8 C 2,2 C 2,5 km/h (1 Bft)
13.02.2023 19:00 1,8 C 98 % 1031,5 hPa 0,0 l/m 1,1 km/h (1 Bft) N 1,5 C 1,8 C 2,5 km/h (1 Bft)
13.02.2023 20:00 1,3 C 99 % 1031,6 hPa 0,0 l/m 0,0 km/h (0 Bft) N 1,2 C 1,3 C 0,0 km/h (0 Bft)
13.02.2023 21:00 0,3 C 99 % 1031,8 hPa 0,0 l/m 0,0 km/h (0 Bft) N 0,2 C 0,3 C 0,0 km/h (0 Bft)
13.02.2023 22:00 -0,4 C 99 % 1031,7 hPa 0,0 l/m 0,0 km/h (0 Bft) N -0,5 C -0,4 C 0,0 km/h (0 Bft)
13.02.2023 23:00 -0,7 C 99 % 1031,6 hPa 0,0 l/m 0,0 km/h (0 Bft) N -0,8 C -0,7 C 0,0 km/h (0 Bft)
14.02.2023 00:00 -1,2 C 99 % 1031,6 hPa 0,0 l/m 0,0 km/h (0 Bft) N -1,3 C -1,2 C 0,0 km/h (0 Bft)
14.02.2023 01:00 -1,6 C 99 % 1031,4 hPa 0,0 l/m 0,0 km/h (0 Bft) N -1,7 C -1,6 C 0,0 km/h (0 Bft)
14.02.2023 02:00 -1,9 C 99 % 1031,3 hPa 0,0 l/m 0,0 km/h (0 Bft) N -2,0 C -1,9 C 0,0 km/h (0 Bft)
14.02.2023 03:00 -2,5 C 99 % 1031,0 hPa 0,0 l/m 0,0 km/h (0 Bft) N -2,6 C -2,5 C 0,0 km/h (0 Bft)
14.02.2023 04:00 -3,2 C 99 % 1030,9 hPa 0,0 l/m 0,0 km/h (0 Bft) N -3,3 C -3,2 C 0,0 km/h (0 Bft)
14.02.2023 05:00 -3,3 C 99 % 1030,9 hPa 0,0 l/m 0,0 km/h (0 Bft) N -3,4 C -3,3 C 0,0 km/h (0 Bft)
14.02.2023 06:00 -3,9 C 98 % 1031,1 hPa 0,0 l/m 0,0 km/h (0 Bft) N -4,2 C -3,9 C 0,0 km/h (0 Bft)
14.02.2023 07:00 -4,1 C 98 % 1031,4 hPa 0,0 l/m 0,0 km/h (0 Bft) N -4,4 C -4,1 C 0,0 km/h (0 Bft)
14.02.2023 08:00 -4,0 C 98 % 1031,6 hPa 0,0 l/m 0,0 km/h (0 Bft) N -4,3 C -4,0 C 0,0 km/h (0 Bft)
14.02.2023 09:00 -3,1 C 99 % 1031,5 hPa 0,0 l/m 0,0 km/h (0 Bft) N -3,2 C -3,1 C 0,0 km/h (0 Bft)
14.02.2023 10:00 -2,3 C 99 % 1031,4 hPa 0,0 l/m 0,0 km/h (0 Bft) W -2,4 C -2,3 C 2,5 km/h (1 Bft)
14.02.2023 11:00 -1,4 C 99 % 1031,0 hPa 0,0 l/m 1,1 km/h (1 Bft) W -1,5 C -1,4 C 3,6 km/h (1 Bft)
14.02.2023 12:00 -0,2 C 99 % 1030,5 hPa 0,0 l/m 1,1 km/h (1 Bft) SW -0,3 C -0,2 C 2,5 km/h (1 Bft)
14.02.2023 13:00 0,7 C 99 % 1029,6 hPa 0,0 l/m 2,5 km/h (1 Bft) NW 0,6 C 0,7 C 3,6 km/h (1 Bft)
14.02.2023 14:00 1,2 C 99 % 1029,0 hPa 0,0 l/m 1,1 km/h (1 Bft) W 1,1 C 1,2 C 3,6 km/h (1 Bft)
14.02.2023 15:00 1,6 C 99 % 1028,4 hPa 0,0 l/m 1,1 km/h (1 Bft) W 1,5 C 1,6 C 2,5 km/h (1 Bft)
14.02.2023 16:00 1,5 C 99 % 1028,2 hPa 0,0 l/m 1,1 km/h (1 Bft) W-SW 1,4 C 1,5 C 2,5 km/h (1 Bft)
14.02.2023 17:00 1,2 C 99 % 1028,3 hPa 0,0 l/m 1,1 km/h (1 Bft) N 1,1 C 1,2 C 2,5 km/h (1 Bft)
14.02.2023 18:00 1,0 C 99 % 1028,4 hPa 0,0 l/m 0,0 km/h (0 Bft) N 0,9 C 1,0 C 0,0 km/h (0 Bft)
14.02.2023 19:00 0,5 C 99 % 1028,2 hPa 0,0 l/m 0,0 km/h (0 Bft) N 0,4 C 0,5 C 0,0 km/h (0 Bft)
14.02.2023 20:00 0,4 C 99 % 1028,0 hPa 0,0 l/m 0,0 km/h (0 Bft) W 0,3 C 0,4 C 0,0 km/h (0 Bft)
14.02.2023 21:00 -0,1 C 99 % 1027,8 hPa 0,0 l/m 2,5 km/h (1 Bft) N -0,2 C -0,1 C 3,6 km/h (1 Bft)
14.02.2023 22:00 -0,3 C 99 % 1027,6 hPa 0,0 l/m 0,0 km/h (0 Bft) N -0,4 C -0,3 C 2,5 km/h (1 Bft)
14.02.2023 23:00 -0,5 C 99 % 1027,3 hPa 0,0 l/m 0,0 km/h (0 Bft) N -0,6 C -0,5 C 0,0 km/h (0 Bft)
15.02.2023 00:00 -0,5 C 99 % 1027,1 hPa 0,0 l/m 0,0 km/h (0 Bft) SO -0,6 C -0,5 C 0,0 km/h (0 Bft)
15.02.2023 01:00 -0,9 C 99 % 1026,6 hPa 0,0 l/m 1,1 km/h (1 Bft) O-SO -1,0 C -0,9 C 2,5 km/h (1 Bft)
15.02.2023 02:00 -1,3 C 99 % 1026,5 hPa 0,0 l/m 1,1 km/h (1 Bft) N -1,4 C -1,3 C 2,5 km/h (1 Bft)
15.02.2023 03:00 -1,6 C 99 % 1026,5 hPa 0,0 l/m 0,0 km/h (0 Bft) N -1,7 C -1,6 C 0,0 km/h (0 Bft)
15.02.2023 04:00 -1,9 C 99 % 1026,0 hPa 0,0 l/m 0,0 km/h (0 Bft) O-SO -2,0 C -1,9 C 0,0 km/h (0 Bft)
15.02.2023 05:00 -2,0 C 99 % 1026,1 hPa 0,0 l/m 1,1 km/h (1 Bft) N -2,1 C -2,0 C 3,6 km/h (1 Bft)
15.02.2023 06:00 -2,6 C 99 % 1026,0 hPa 0,0 l/m 0,0 km/h (0 Bft) N -2,7 C -2,6 C 0,0 km/h (0 Bft)
15.02.2023 07:00 -2,8 C 99 % 1026,3 hPa 0,0 l/m 0,0 km/h (0 Bft) SO -2,9 C -2,8 C 0,0 km/h (0 Bft)
15.02.2023 08:00 -2,7 C 99 % 1026,6 hPa 0,0 l/m 2,5 km/h (1 Bft) N -2,8 C -2,7 C 3,6 km/h (1 Bft)
15.02.2023 09:00 -2,6 C 99 % 1026,1 hPa 0,0 l/m 0,0 km/h (0 Bft) W-NW -2,7 C -2,6 C 2,5 km/h (1 Bft)
15.02.2023 10:00 -1,9 C 99 % 1026,0 hPa 0,0 l/m 1,1 km/h (1 Bft) SW -2,0 C -1,9 C 2,5 km/h (1 Bft)
15.02.2023 11:00 -0,9 C 99 % 1025,8 hPa 0,0 l/m 1,1 km/h (1 Bft) S-SO -1,0 C -0,9 C 2,5 km/h (1 Bft)
15.02.2023 12:00 0,6 C 99 % 1025,1 hPa 0,0 l/m 2,5 km/h (1 Bft) W 0,5 C 0,6 C 3,6 km/h (1 Bft)
15.02.2023 13:00 2,3 C 99 % 1024,0 hPa 0,0 l/m 2,5 km/h (1 Bft) W 2,2 C 2,3 C 3,6 km/h (1 Bft)
15.02.2023 14:00 5,0 C 99 % 1023,4 hPa 0,0 l/m 5,0 km/h (1 Bft) W-NW 4,9 C 5,0 C 6,1 km/h (2 Bft)
15.02.2023 15:00 7,1 C 81 % 1023,0 hPa 0,0 l/m 2,5 km/h (1 Bft) W 4,1 C 7,1 C 3,6 km/h (1 Bft)
15.02.2023 16:00 7,2 C 81 % 1023,3 hPa 0,0 l/m 3,6 km/h (1 Bft) N 4,2 C 7,2 C 6,1 km/h (2 Bft)
15.02.2023 17:00 4,9 C 85 % 1023,2 hPa 0,0 l/m 0,0 km/h (0 Bft) N 2,6 C 4,9 C 0,0 km/h (0 Bft)
15.02.2023 18:00 1,5 C 92 % 1023,8 hPa 0,0 l/m 0,0 km/h (0 Bft) N 0,3 C 1,5 C 0,0 km/h (0 Bft)
15.02.2023 19:00 0,2 C 96 % 1023,8 hPa 0,0 l/m 0,0 km/h (0 Bft) N -0,4 C 0,2 C 0,0 km/h (0 Bft)
15.02.2023 20:00 0,1 C 98 % 1023,5 hPa 0,0 l/m 0,0 km/h (0 Bft) N -0,2 C 0,1 C 0,0 km/h (0 Bft)
15.02.2023 21:00 -1,3 C 98 % 1023,6 hPa 0,0 l/m 0,0 km/h (0 Bft) N -1,6 C -1,3 C 0,0 km/h (0 Bft)
15.02.2023 22:00 -1,4 C 98 % 1023,7 hPa 0,0 l/m 0,0 km/h (0 Bft) N -1,7 C -1,4 C 0,0 km/h (0 Bft)
15.02.2023 23:00 -0,8 C 99 % 1024,0 hPa 0,0 l/m 0,0 km/h (0 Bft) NW -0,9 C -0,8 C 0,0 km/h (0 Bft)
16.02.2023 00:00 -1,0 C 98 % 1024,1 hPa 0,0 l/m 1,1 km/h (1 Bft) NW -1,3 C -1,0 C 3,6 km/h (1 Bft)
16.02.2023 01:00 -0,7 C 97 % 1023,9 hPa 0,0 l/m 1,1 km/h (1 Bft) N -1,1 C -0,7 C 3,6 km/h (1 Bft)
16.02.2023 02:00 -1,0 C 96 % 1023,6 hPa 0,0 l/m 0,0 km/h (0 Bft) N -1,6 C -1,0 C 2,5 km/h (1 Bft)
16.02.2023 03:00 -1,2 C 95 % 1023,9 hPa 0,0 l/m 0,0 km/h (0 Bft) NO -1,9 C -1,2 C 2,5 km/h (1 Bft)
16.02.2023 04:00 -0,4 C 95 % 1023,5 hPa 0,0 l/m 1,1 km/h (1 Bft) O-SO -1,1 C -0,4 C 2,5 km/h (1 Bft)
16.02.2023 05:00 -0,2 C 95 % 1023,8 hPa 0,0 l/m 1,1 km/h (1 Bft) N -0,9 C -0,2 C 2,5 km/h (1 Bft)
16.02.2023 06:00 0,0 C 94 % 1024,0 hPa 0,0 l/m 0,0 km/h (0 Bft) N -0,8 C 0,0 C 0,0 km/h (0 Bft)
16.02.2023 07:00 0,2 C 92 % 1024,3 hPa 0,0 l/m 0,0 km/h (0 Bft) N -0,9 C 0,2 C 2,5 km/h (1 Bft)
16.02.2023 08:00 1,3 C 90 % 1024,6 hPa 0,0 l/m 0,0 km/h (0 Bft) O-NO -0,2 C 1,3 C 2,5 km/h (1 Bft)
16.02.2023 09:00 4,3 C 84 % 1024,6 hPa 0,0 l/m 1,1 km/h (1 Bft) O-SO 1,8 C 4,3 C 3,6 km/h (1 Bft)
16.02.2023 10:00 8,4 C 72 % 1024,8 hPa 0,0 l/m 3,6 km/h (1 Bft) O 3,7 C 8,4 C 7,2 km/h (2 Bft)
16.02.2023 11:00 11,9 C 58 % 1024,5 hPa 0,0 l/m 1,1 km/h (1 Bft) W 3,9 C 11,9 C 3,6 km/h (1 Bft)
16.02.2023 12:00 13,5 C 53 % 1024,1 hPa 0,0 l/m 11,2 km/h (2 Bft) SW 4,1 C 10,9 C 17,3 km/h (3 Bft)
16.02.2023 13:00 15,1 C 47 % 1023,1 hPa 0,0 l/m 11,2 km/h (2 Bft) SW 3,9 C 12,7 C 13,3 km/h (3 Bft)
16.02.2023 14:00 14,7 C 47 % 1022,8 hPa 0,0 l/m 14,8 km/h (3 Bft) W-SW 3,5 C 10,9 C 18,4 km/h (3 Bft)
16.02.2023 15:00 13,6 C 51 % 1022,5 hPa 0,0 l/m 6,1 km/h (2 Bft) SW 3,7 C 13,6 C 13,3 km/h (3 Bft)
16.02.2023 16:00 13,3 C 52 % 1022,6 hPa 0,0 l/m 7,2 km/h (2 Bft) SW 3,7 C 12,8 C 11,2 km/h (2 Bft)
16.02.2023 17:00 13,1 C 52 % 1022,5 hPa 0,0 l/m 9,7 km/h (2 Bft) W-SW 3,5 C 11,2 C 17,3 km/h (3 Bft)
16.02.2023 18:00 12,6 C 52 % 1022,5 hPa 0,0 l/m 7,2 km/h (2 Bft) S 3,0 C 12,1 C 9,7 km/h (2 Bft)
16.02.2023 19:00 11,8 C 54 % 1022,8 hPa 0,0 l/m 3,6 km/h (1 Bft) S-SW 2,8 C 11,8 C 6,1 km/h (2 Bft)
16.02.2023 20:00 12,0 C 55 % 1023,0 hPa 0,0 l/m 2,5 km/h (1 Bft) S-SO 3,2 C 12,0 C 3,6 km/h (1 Bft)
16.02.2023 21:00 11,8 C 56 % 1023,1 hPa 0,0 l/m 2,5 km/h (1 Bft) W-SW 3,3 C 11,8 C 3,6 km/h (1 Bft)
16.02.2023 22:00 12,3 C 53 % 1023,2 hPa 0,0 l/m 3,6 km/h (1 Bft) SW 3,0 C 12,3 C 6,1 km/h (2 Bft)
16.02.2023 23:00 12,3 C 52 % 1023,0 hPa 0,0 l/m 5,0 km/h (1 Bft) SW 2,7 C 12,3 C 7,2 km/h (2 Bft)
17.02.2023 00:00 12,5 C 51 % 1022,9 hPa 0,0 l/m 6,1 km/h (2 Bft) SW 2,6 C 12,5 C 9,7 km/h (2 Bft)
17.02.2023 01:00 12,6 C 53 % 1023,1 hPa 0,0 l/m 6,1 km/h (2 Bft) W-SW 3,3 C 12,6 C 9,7 km/h (2 Bft)
17.02.2023 02:00 11,7 C 62 % 1023,1 hPa 0,0 l/m 5,0 km/h (1 Bft) W-SW 4,7 C 11,7 C 9,7 km/h (2 Bft)
17.02.2023 03:00 11,8 C 64 % 1022,6 hPa 0,0 l/m 3,6 km/h (1 Bft) SW 5,2 C 11,8 C 6,1 km/h (2 Bft)
17.02.2023 04:00 11,8 C 66 % 1022,5 hPa 0,0 l/m 5,0 km/h (1 Bft) SW 5,7 C 11,8 C 7,2 km/h (2 Bft)
17.02.2023 05:00 12,0 C 62 % 1022,2 hPa 0,0 l/m 8,6 km/h (2 Bft) S-SW 4,9 C 10,6 C 13,3 km/h (3 Bft)
17.02.2023 06:00 11,7 C 63 % 1022,6 hPa 0,0 l/m 12,2 km/h (2 Bft) W 4,9 C 8,4 C 20,9 km/h (4 Bft)
17.02.2023 07:00 10,8 C 66 % 1023,2 hPa 0,0 l/m 6,1 km/h (2 Bft) SW 4,7 C 10,8 C 9,7 km/h (2 Bft)
17.02.2023 08:00 10,8 C 74 % 1023,9 hPa 0,0 l/m 12,2 km/h (2 Bft) S-SW 6,4 C 7,3 C 17,3 km/h (3 Bft)
17.02.2023 09:00 10,6 C 77 % 1024,0 hPa 0,0 l/m 9,7 km/h (2 Bft) S 6,7 C 8,4 C 17,3 km/h (3 Bft)
17.02.2023 10:00 10,5 C 81 % 1024,4 hPa 0,0 l/m 13,3 km/h (3 Bft) SW 7,4 C 6,5 C 18,4 km/h (3 Bft)
17.02.2023 11:00 10,8 C 82 % 1024,7 hPa 0,0 l/m 13,3 km/h (3 Bft) W 7,9 C 6,8 C 17,3 km/h (3 Bft)
17.02.2023 12:00 11,3 C 80 % 1024,6 hPa 0,0 l/m 12,2 km/h (2 Bft) W-SW 8,0 C 7,9 C 17,3 km/h (3 Bft)
17.02.2023 13:00 11,9 C 79 % 1024,1 hPa 0,0 l/m 13,3 km/h (3 Bft) SW 8,4 C 8,1 C 18,4 km/h (3 Bft)
17.02.2023 14:00 12,3 C 78 % 1023,8 hPa 0,0 l/m 14,8 km/h (3 Bft) W-SW 8,6 C 8,0 C 20,9 km/h (4 Bft)
17.02.2023 15:00 12,9 C 77 % 1023,6 hPa 0,0 l/m 13,3 km/h (3 Bft) SW 9,0 C 9,3 C 18,4 km/h (3 Bft)
17.02.2023 16:00 12,9 C 77 % 1023,5 hPa 0,0 l/m 13,3 km/h (3 Bft) W-SW 9,0 C 9,3 C 18,4 km/h (3 Bft)
17.02.2023 17:00 12,2 C 81 % 1023,6 hPa 0,0 l/m 8,6 km/h (2 Bft) SW 9,0 C 10,8 C 13,3 km/h (3 Bft)
17.02.2023 18:00 11,9 C 83 % 1023,7 hPa 0,0 l/m 8,6 km/h (2 Bft) SW 9,1 C 10,5 C 14,8 km/h (3 Bft)
17.02.2023 19:00 11,6 C 84 % 1024,1 hPa 0,0 l/m 12,2 km/h (2 Bft) SW 9,0 C 8,3 C 22,0 km/h (4 Bft)
17.02.2023 20:00 11,6 C 85 % 1024,5 hPa 0,0 l/m 14,8 km/h (3 Bft) SW 9,2 C 7,2 C 25,6 km/h (4 Bft)
17.02.2023 21:00 11,6 C 86 % 1024,8 hPa 0,0 l/m 13,3 km/h (3 Bft) S-SW 9,3 C 7,8 C 24,5 km/h (4 Bft)
17.02.2023 22:00 11,6 C 86 % 1025,1 hPa 0,0 l/m 8,6 km/h (2 Bft) SW 9,3 C 10,2 C 11,2 km/h (2 Bft)
17.02.2023 23:00 11,4 C 87 % 1025,4 hPa 0,0 l/m 11,2 km/h (2 Bft) SW 9,3 C 8,5 C 17,3 km/h (3 Bft)
18.02.2023 00:00 11,4 C 86 % 1025,2 hPa 0,0 l/m 13,3 km/h (3 Bft) SW 9,1 C 7,5 C 22,0 km/h (4 Bft)
18.02.2023 01:00 11,4 C 87 % 1024,9 hPa 0,0 l/m 11,2 km/h (2 Bft) SW 9,3 C 8,5 C 14,8 km/h (3 Bft)
18.02.2023 02:00 11,4 C 87 % 1024,4 hPa 0,0 l/m 11,2 km/h (2 Bft) W-SW 9,3 C 8,5 C 14,8 km/h (3 Bft)
18.02.2023 03:00 11,5 C 87 % 1024,1 hPa 0,0 l/m 13,3 km/h (3 Bft) W-SW 9,4 C 7,7 C 20,9 km/h (4 Bft)
18.02.2023 04:00 11,2 C 88 % 1023,8 hPa 0,0 l/m 8,6 km/h (2 Bft) SW 9,3 C 9,7 C 14,8 km/h (3 Bft)
18.02.2023 05:00 11,3 C 87 % 1023,7 hPa 0,0 l/m 5,0 km/h (1 Bft) W-SW 9,2 C 11,3 C 11,2 km/h (2 Bft)
18.02.2023 06:00 11,5 C 86 % 1023,6 hPa 0,0 l/m 9,7 km/h (2 Bft) W-SW 9,2 C 9,4 C 14,8 km/h (3 Bft)
18.02.2023 07:00 11,2 C 86 % 1023,3 hPa 0,0 l/m 14,8 km/h (3 Bft) W-SW 8,9 C 6,7 C 18,4 km/h (3 Bft)
18.02.2023 08:00 11,7 C 84 % 1023,1 hPa 0,0 l/m 11,2 km/h (2 Bft) W-SW 9,1 C 8,9 C 17,3 km/h (3 Bft)
18.02.2023 09:00 12,4 C 80 % 1023,2 hPa 0,0 l/m 12,2 km/h (2 Bft) SW 9,0 C 9,2 C 18,4 km/h (3 Bft)
18.02.2023 10:00 12,5 C 80 % 1023,3 hPa 0,0 l/m 11,2 km/h (2 Bft) W-SW 9,1 C 9,8 C 14,8 km/h (3 Bft)
18.02.2023 11:00 13,2 C 78 % 1023,1 hPa 0,0 l/m 13,3 km/h (3 Bft) W-SW 9,4 C 9,7 C 18,4 km/h (3 Bft)
18.02.2023 12:00 13,4 C 78 % 1023,0 hPa 0,0 l/m 17,3 km/h (3 Bft) W-SW 9,6 C 8,5 C 20,9 km/h (4 Bft)
18.02.2023 13:00 13,7 C 75 % 1022,0 hPa 0,0 l/m 19,4 km/h (3 Bft) S 9,3 C 8,2 C 25,6 km/h (4 Bft)
18.02.2023 14:00 14,2 C 73 % 1021,5 hPa 0,0 l/m 11,2 km/h (2 Bft) W-SW 9,4 C 11,7 C 18,4 km/h (3 Bft)
18.02.2023 15:00 14,7 C 73 % 1021,0 hPa 0,0 l/m 8,6 km/h (2 Bft) SW 9,9 C 13,5 C 11,2 km/h (2 Bft)
18.02.2023 16:00 13,9 C 72 % 1020,9 hPa 0,0 l/m 12,2 km/h (2 Bft) W 8,9 C 10,9 C 17,3 km/h (3 Bft)
18.02.2023 17:00 13,1 C 73 % 1020,5 hPa 0,0 l/m 8,6 km/h (2 Bft) SW 8,4 C 11,8 C 11,2 km/h (2 Bft)
18.02.2023 18:00 12,7 C 73 % 1020,6 hPa 0,0 l/m 8,6 km/h (2 Bft) W 8,0 C 11,3 C 13,3 km/h (3 Bft)
18.02.2023 19:00 12,3 C 75 % 1021,0 hPa 0,0 l/m 9,7 km/h (2 Bft) W-SW 8,0 C 10,3 C 13,3 km/h (3 Bft)
18.02.2023 20:00 12,2 C 75 % 1021,0 hPa 0,0 l/m 6,1 km/h (2 Bft) SW 7,9 C 12,2 C 7,2 km/h (2 Bft)
18.02.2023 21:00 12,3 C 75 % 1020,8 hPa 0,0 l/m 9,7 km/h (2 Bft) SW 8,0 C 10,3 C 13,3 km/h (3 Bft)
18.02.2023 22:00 12,5 C 76 % 1020,5 hPa 0,0 l/m 14,8 km/h (3 Bft) W-SW 8,4 C 8,2 C 22,0 km/h (4 Bft)
18.02.2023 23:00 12,0 C 78 % 1020,8 hPa 0,0 l/m 7,2 km/h (2 Bft) SW 8,3 C 11,5 C 9,7 km/h (2 Bft)
19.02.2023 00:00 11,9 C 78 % 1020,3 hPa 0,0 l/m 13,3 km/h (3 Bft) SW 8,2 C 8,1 C 20,9 km/h (4 Bft)
19.02.2023 01:00 11,6 C 75 % 1020,3 hPa 0,0 l/m 9,7 km/h (2 Bft) SW 7,3 C 9,5 C 14,8 km/h (3 Bft)
19.02.2023 02:00 11,1 C 75 % 1020,1 hPa 0,0 l/m 9,7 km/h (2 Bft) W-SW 6,8 C 9,0 C 14,8 km/h (3 Bft)
19.02.2023 03:00 10,9 C 76 % 1020,0 hPa 0,0 l/m 14,8 km/h (3 Bft) SW 6,8 C 6,3 C 20,9 km/h (4 Bft)
19.02.2023 04:00 10,5 C 77 % 1019,7 hPa 0,0 l/m 8,6 km/h (2 Bft) W-SW 6,6 C 9,0 C 14,8 km/h (3 Bft)
19.02.2023 05:00 10,5 C 76 % 1019,7 hPa 0,0 l/m 9,7 km/h (2 Bft) S-SW 6,5 C 8,3 C 14,8 km/h (3 Bft)
19.02.2023 06:00 10,0 C 79 % 1020,4 hPa 0,0 l/m 12,2 km/h (2 Bft) W-NW 6,5 C 6,4 C 17,3 km/h (3 Bft)
19.02.2023 07:00 9,4 C 82 % 1021,4 hPa 0,0 l/m 9,7 km/h (2 Bft) W 6,5 C 7,1 C 13,3 km/h (3 Bft)
19.02.2023 08:00 9,1 C 85 % 1022,1 hPa 0,0 l/m 6,1 km/h (2 Bft) S-SW 6,7 C 9,1 C 7,2 km/h (2 Bft)
19.02.2023 09:00 9,1 C 88 % 1022,4 hPa 0,0 l/m 5,0 km/h (1 Bft) W-SW 7,2 C 9,1 C 7,2 km/h (2 Bft)
19.02.2023 10:00 10,2 C 83 % 1022,9 hPa 0,0 l/m 8,6 km/h (2 Bft) SW 7,4 C 8,7 C 11,2 km/h (2 Bft)
19.02.2023 11:00 10,7 C 80 % 1022,7 hPa 0,0 l/m 9,7 km/h (2 Bft) SW 7,4 C 8,5 C 14,8 km/h (3 Bft)
19.02.2023 12:00 11,2 C 78 % 1023,1 hPa 0,0 l/m 9,7 km/h (2 Bft) W 7,5 C 9,1 C 13,3 km/h (3 Bft)
19.02.2023 13:00 11,5 C 67 % 1023,0 hPa 0,0 l/m 8,6 km/h (2 Bft) NW 5,6 C 10,1 C 11,2 km/h (2 Bft)
19.02.2023 14:00 11,7 C 67 % 1022,7 hPa 0,0 l/m 2,5 km/h (1 Bft) W-NW 5,8 C 11,7 C 3,6 km/h (1 Bft)
19.02.2023 15:00 11,3 C 67 % 1022,7 hPa 0,0 l/m 5,0 km/h (1 Bft) W 5,4 C 11,3 C 7,2 km/h (2 Bft)
19.02.2023 16:00 11,0 C 66 % 1023,1 hPa 0,0 l/m 5,0 km/h (1 Bft) W 4,9 C 11,0 C 6,1 km/h (2 Bft)
19.02.2023 17:00 10,3 C 73 % 1023,6 hPa 0,0 l/m 6,1 km/h (2 Bft) W-SW 5,7 C 10,3 C 7,2 km/h (2 Bft)
19.02.2023 18:00 9,7 C 75 % 1023,7 hPa 0,0 l/m 6,1 km/h (2 Bft) W 5,5 C 9,7 C 7,2 km/h (2 Bft)
19.02.2023 19:00 9,7 C 76 % 1024,0 hPa 0,0 l/m 5,0 km/h (1 Bft) W 5,7 C 9,7 C 6,1 km/h (2 Bft)
19.02.2023 20:00 9,3 C 79 % 1024,6 hPa 0,0 l/m 2,5 km/h (1 Bft) N 5,8 C 9,3 C 2,5 km/h (1 Bft)
19.02.2023 21:00 9,0 C 80 % 1025,2 hPa 0,0 l/m 0,0 km/h (0 Bft) N 5,7 C 9,0 C 2,5 km/h (1 Bft)
19.02.2023 22:00 8,7 C 81 % 1025,0 hPa 0,0 l/m 0,0 km/h (0 Bft) W-SW 5,6 C 8,7 C 0,0 km/h (0 Bft)
19.02.2023 23:00 7,0 C 88 % 1025,2 hPa 0,0 l/m 2,5 km/h (1 Bft) W 5,2 C 7,0 C 2,5 km/h (1 Bft)
Min-Datum _ 14.02.23 16.02.23 19.02.23 - 13.02.23 - 14.02.23 14.02.23 13.02.23
_ Min-Zeit 07:37 13:37 04:37 - 03:37 - 07:37 07:37 04:37
Minimum _ -4,1 C 47 % 1019,7 hPa - 0,0 km/h (0 Bft) - -4,4 C -4,1 C 0,0 km/h (0 Bft)
Max-Datum _ 16.02.23 13.02.23 13.02.23 13.02.23 18.02.23 - 18.02.23 16.02.23 17.02.23
_ Max-Zeit 13:37 20:37 09:37 00:37 13:37 - 15:37 15:37 20:37
Maximum _ 15,1 C 99 % 1032,8 hPa 0,0 l/m 19,4 km/h
S (3 Bft)
- 9,9 C 13,6 C 25,6 km/h
SW (4 Bft)
Durchschnitt _ 6,1 C 84 % 1025,5 hPa #0,0 l/m 5,0 km/h (1 Bft) SW 3,3 C 5,2 C 7,8 km/h (2 Bft)
www.sexauwetter.de